createdAt,value
2019-05-10T00:00:29.082Z,0
2019-05-10T00:04:32.568Z,0
2019-05-10T00:05:13.115Z,0
2019-05-10T00:05:53.476Z,0
2019-05-10T00:06:35.735Z,0
2019-05-10T00:07:16.113Z,0
2019-05-10T00:08:00.404Z,0
2019-05-10T00:09:24.181Z,0
2019-05-10T00:10:07.057Z,0
2019-05-10T00:12:54.448Z,0
2019-05-10T00:13:34.798Z,0
2019-05-10T00:14:15.344Z,0
2019-05-10T00:15:37.519Z,0
2019-05-10T00:17:02.182Z,0
2019-05-10T00:17:46.292Z,0
2019-05-10T00:18:29.928Z,0
2019-05-10T00:19:55.341Z,0
2019-05-10T00:20:43.916Z,0
2019-05-10T00:21:26.343Z,0
2019-05-10T00:23:31.298Z,0
2019-05-10T00:24:11.825Z,0
2019-05-10T00:25:02.717Z,0
2019-05-10T00:25:32.697Z,0
2019-05-10T00:26:19.507Z,0
2019-05-10T00:27:01.718Z,0
2019-05-10T00:33:48.269Z,0
2019-05-10T00:34:28.634Z,0
2019-05-10T00:35:08.989Z,0
2019-05-10T00:35:51.546Z,0
2019-05-10T00:36:33.205Z,0
2019-05-10T00:42:41.771Z,0
2019-05-10T00:43:22.925Z,0
2019-05-10T00:44:03.299Z,0
2019-05-10T00:44:46.675Z,0
2019-05-10T00:48:13.731Z,0
2019-05-10T00:50:23.838Z,0
2019-05-10T00:53:34.863Z,0
2019-05-10T00:54:31.061Z,0
2019-05-10T00:56:52.885Z,0
2019-05-10T00:57:33.879Z,0
2019-05-10T00:58:16.604Z,0
2019-05-10T00:58:58.678Z,0
2019-05-10T01:01:05.078Z,0
2019-05-10T01:01:44.623Z,0
2019-05-10T01:02:24.996Z,0
2019-05-10T01:03:05.338Z,0
2019-05-10T01:06:59.148Z,0
2019-05-10T01:09:58.825Z,0
2019-05-10T01:10:41.223Z,0
2019-05-10T01:11:21.541Z,0
2019-05-10T01:12:01.879Z,0
2019-05-10T01:12:42.535Z,0
2019-05-10T01:13:22.937Z,0
2019-05-10T01:14:03.302Z,0
2019-05-10T01:14:43.779Z,0
2019-05-10T01:23:28.836Z,0
2019-05-10T01:24:09.164Z,0
2019-05-10T01:24:49.572Z,0
2019-05-10T01:25:34.949Z,0
2019-05-10T01:26:10.291Z,0
2019-05-10T01:26:50.724Z,0
2019-05-10T01:27:31.097Z,0
2019-05-10T01:28:11.481Z,0
2019-05-10T01:28:51.877Z,0
2019-05-10T01:29:32.277Z,0
2019-05-10T01:30:12.662Z,0
2019-05-10T01:30:56.708Z,0
2019-05-10T01:34:58.991Z,0
2019-05-10T01:35:39.386Z,0
2019-05-10T01:36:19.775Z,0
2019-05-10T01:37:00.410Z,0
2019-05-10T01:37:40.775Z,0
2019-05-10T01:38:21.301Z,0
2019-05-10T01:39:42.126Z,0
2019-05-10T01:40:22.577Z,0
2019-05-10T01:41:03.523Z,0
2019-05-10T01:44:54.564Z,0
2019-05-10T01:45:35.091Z,0
2019-05-10T01:46:15.302Z,0
2019-05-10T01:46:55.705Z,0
2019-05-10T01:47:37.613Z,0
2019-05-10T01:48:18.277Z,0
2019-05-10T01:48:58.479Z,0
2019-05-10T01:53:45.532Z,0
2019-05-10T01:54:25.957Z,0
2019-05-10T01:55:06.369Z,0
2019-05-10T01:55:51.899Z,0
2019-05-10T01:56:27.096Z,0
2019-05-10T01:57:07.477Z,0
2019-05-10T01:57:47.912Z,0
2019-05-10T01:58:28.387Z,0
2019-05-10T01:59:08.650Z,0
2019-05-10T01:59:49.033Z,0
2019-05-10T02:00:29.436Z,0
2019-05-10T02:06:36.463Z,0
2019-05-10T02:07:16.923Z,0
2019-05-10T02:07:57.327Z,0
2019-05-10T02:08:37.737Z,0
2019-05-10T02:09:18.254Z,0
2019-05-10T02:09:58.666Z,0
2019-05-10T02:10:39.402Z,0
2019-05-10T02:17:26.718Z,0
2019-05-10T02:18:07.014Z,0
2019-05-10T02:18:47.634Z,0
2019-05-10T02:19:28.013Z,0
2019-05-10T02:20:08.462Z,0
2019-05-10T02:20:48.761Z,0
2019-05-10T02:21:29.277Z,0
2019-05-10T02:22:09.669Z,0
2019-05-10T02:25:34.667Z,0
2019-05-10T02:26:15.116Z,0
2019-05-10T02:26:55.436Z,0
2019-05-10T02:27:35.841Z,0
2019-05-10T02:28:16.254Z,0
2019-05-10T02:28:56.564Z,0
2019-05-10T02:29:37.095Z,0
2019-05-10T02:30:17.401Z,0
2019-05-10T02:30:58.102Z,0
2019-05-10T02:31:38.492Z,0
2019-05-10T02:32:19.053Z,0
2019-05-10T02:32:59.463Z,0
2019-05-10T02:39:45.661Z,0
2019-05-10T02:40:26.028Z,0
2019-05-10T02:41:06.382Z,0
2019-05-10T02:41:48.655Z,0
2019-05-10T02:48:38.654Z,0
2019-05-10T02:49:19.057Z,0
2019-05-10T02:51:24.951Z,0
2019-05-10T02:52:05.251Z,0
2019-05-10T02:52:47.435Z,0
2019-05-10T02:53:27.864Z,0
2019-05-10T02:54:08.223Z,0
2019-05-10T02:54:48.858Z,0
2019-05-10T02:55:29.180Z,0
2019-05-10T03:00:15.331Z,0
2019-05-10T03:00:56.159Z,0
2019-05-10T03:01:37.721Z,0
2019-05-10T03:02:17.603Z,0
2019-05-10T03:02:58.008Z,0
2019-05-10T03:03:38.302Z,0
2019-05-10T03:04:18.663Z,0
2019-05-10T03:04:59.082Z,0
2019-05-10T03:05:39.469Z,0
2019-05-10T03:09:44.604Z,0
2019-05-10T03:10:24.959Z,0
2019-05-10T03:11:05.371Z,0
2019-05-10T03:11:45.837Z,0
2019-05-10T03:12:27.893Z,0
2019-05-10T03:13:08.289Z,0
2019-05-10T03:13:48.952Z,0
2019-05-10T03:14:29.543Z,0
2019-05-10T03:18:34.431Z,0
2019-05-10T03:19:14.741Z,0
2019-05-10T03:19:55.210Z,0
2019-05-10T03:20:36.427Z,0
2019-05-10T03:21:17.099Z,0
2019-05-10T03:21:57.446Z,0
2019-05-10T03:22:37.906Z,0
2019-05-10T03:23:18.262Z,0
2019-05-10T03:23:58.652Z,0
2019-05-10T03:24:39.052Z,0
2019-05-10T03:25:19.410Z,0
2019-05-10T03:29:25.701Z,0
2019-05-10T03:30:06.137Z,0
2019-05-10T03:30:46.442Z,0
2019-05-10T03:31:26.897Z,0
2019-05-10T03:32:07.293Z,0
2019-05-10T03:33:28.042Z,0
2019-05-10T03:34:08.504Z,0
2019-05-10T03:34:48.907Z,0
2019-05-10T03:37:34.491Z,0
2019-05-10T03:38:18.166Z,0
2019-05-10T03:39:57.375Z,4
2019-05-10T03:41:28.714Z,0
2019-05-10T03:42:17.742Z,0
2019-05-10T03:43:49.795Z,4
2019-05-10T03:45:14.487Z,4
2019-05-10T03:45:54.910Z,4
2019-05-10T03:48:21.170Z,8
2019-05-10T03:49:08.832Z,8
2019-05-10T03:52:02.969Z,8
2019-05-10T03:52:44.283Z,8
2019-05-10T03:53:27.838Z,8
2019-05-10T03:57:09.124Z,12
2019-05-10T04:01:34.453Z,16
2019-05-10T04:02:20.411Z,16
2019-05-10T04:03:13.175Z,16
2019-05-10T04:03:55.353Z,16
2019-05-10T04:04:37.426Z,16
2019-05-10T04:05:17.880Z,20
2019-05-10T04:05:58.255Z,24
2019-05-10T04:06:40.265Z,24
2019-05-10T04:11:25.582Z,32
2019-05-10T04:12:06.040Z,28
2019-05-10T04:12:47.300Z,32
2019-05-10T04:13:27.614Z,32
2019-05-10T04:14:08.520Z,32
2019-05-10T04:14:49.660Z,32
2019-05-10T04:15:30.858Z,32
2019-05-10T04:19:42.903Z,40
2019-05-10T04:20:23.870Z,36
2019-05-10T04:21:05.285Z,36
2019-05-10T04:21:47.040Z,40
2019-05-10T04:23:52.934Z,48
2019-05-10T04:24:36.350Z,44
2019-05-10T04:25:15.185Z,48
2019-05-10T04:26:37.450Z,44
2019-05-10T04:27:31.103Z,40
2019-05-10T05:10:20.272Z,116
2019-05-10T05:11:02.067Z,116
2019-05-10T05:11:45.487Z,116
2019-05-10T05:12:28.530Z,112
2019-05-10T05:13:10.913Z,128
2019-05-10T05:17:16.302Z,224
2019-05-10T05:17:59.848Z,224
2019-05-10T05:18:39.678Z,212
2019-05-10T05:19:20.013Z,208
2019-05-10T05:20:00.564Z,212
2019-05-10T05:20:55.615Z,216
2019-05-10T05:21:37.478Z,228
2019-05-10T05:22:18.046Z,228
2019-05-10T05:25:35.078Z,348
2019-05-10T05:26:14.675Z,368
2019-05-10T05:26:55.274Z,356
2019-05-10T05:27:35.686Z,352
2019-05-10T05:28:18.274Z,352
2019-05-10T05:28:57.757Z,360
2019-05-10T05:29:39.119Z,364
2019-05-10T05:35:16.539Z,232
2019-05-10T05:35:56.556Z,224
2019-05-10T05:36:39.464Z,228
2019-05-10T05:37:19.744Z,232
2019-05-10T05:38:00.147Z,220
2019-05-10T05:38:46.858Z,220
2019-05-10T05:41:27.088Z,272
2019-05-10T05:42:07.495Z,280
2019-05-10T05:42:47.860Z,304
2019-05-10T05:43:29.912Z,332
2019-05-10T05:44:14.251Z,344
2019-05-10T05:44:56.342Z,380
2019-05-10T05:45:36.937Z,400
2019-05-10T05:51:10.199Z,388
2019-05-10T05:51:51.921Z,424
2019-05-10T05:55:16.620Z,600
2019-05-10T05:55:57.226Z,624
2019-05-10T05:56:37.526Z,572
2019-05-10T05:57:22.097Z,504
2019-05-10T05:57:59.102Z,460
2019-05-10T05:58:44.320Z,400
2019-05-10T06:02:09.024Z,380
2019-05-10T06:02:47.321Z,400
2019-05-10T06:03:29.499Z,456
2019-05-10T06:07:00.439Z,1052
2019-05-10T06:07:41.411Z,1264
2019-05-10T06:12:12.484Z,892
2019-05-10T06:12:52.871Z,832
2019-05-10T06:13:32.683Z,716
2019-05-10T06:14:13.854Z,644
2019-05-10T06:14:56.192Z,620
2019-05-10T06:15:36.631Z,596
2019-05-10T06:16:17.086Z,580
2019-05-10T06:16:57.414Z,592
2019-05-10T06:17:38.070Z,604
2019-05-10T06:18:23.839Z,636
2019-05-10T06:19:48.508Z,664
2019-05-10T06:20:28.756Z,640
2019-05-10T06:21:10.777Z,660
2019-05-10T06:21:51.045Z,724
2019-05-10T06:23:59.332Z,888
2019-05-10T06:24:38.553Z,968
2019-05-10T06:25:18.961Z,1016
2019-05-10T06:27:26.095Z,1416
2019-05-10T06:28:25.579Z,1420
2019-05-10T06:29:03.253Z,1428
2019-05-10T06:29:31.123Z,1436
2019-05-10T06:32:59.954Z,1320
2019-05-10T06:33:39.546Z,1260
2019-05-10T06:34:20.621Z,1136
2019-05-10T06:35:01.039Z,1036
2019-05-10T06:36:27.621Z,912
2019-05-10T06:37:10.227Z,844
2019-05-10T06:37:50.643Z,792
2019-05-10T06:38:31.060Z,748
2019-05-10T06:41:19.074Z,716
2019-05-10T06:41:59.161Z,724
2019-05-10T06:42:39.847Z,736
2019-05-10T06:43:21.288Z,744
2019-05-10T06:45:26.220Z,744
2019-05-10T06:46:06.799Z,728
2019-05-10T06:46:49.324Z,704
2019-05-10T06:47:30.819Z,680
2019-05-10T06:48:11.097Z,656
2019-05-10T06:51:36.984Z,620
2019-05-10T06:52:21.731Z,644
2019-05-10T06:55:46.288Z,784
2019-05-10T06:56:26.632Z,816
2019-05-10T06:57:11.060Z,836
2019-05-10T06:57:49.860Z,848
2019-05-10T06:58:36.207Z,844
2019-05-10T07:04:00.781Z,740
2019-05-10T07:04:42.023Z,712
2019-05-10T07:05:29.955Z,684
2019-05-10T07:06:10.487Z,684
2019-05-10T07:11:36.242Z,580
2019-05-10T07:12:18.587Z,580
2019-05-10T07:13:03.376Z,588
2019-05-10T07:13:40.180Z,588
2019-05-10T07:14:25.301Z,592
2019-05-10T07:16:26.710Z,588
2019-05-10T07:17:11.383Z,592
2019-05-10T07:19:57.745Z,552
2019-05-10T07:20:42.863Z,540
2019-05-10T07:21:22.224Z,520
2019-05-10T07:24:05.753Z,528
2019-05-10T07:24:49.194Z,536
2019-05-10T07:25:37.593Z,544
2019-05-10T07:29:08.445Z,644
2019-05-10T07:29:51.871Z,676
2019-05-10T07:30:33.699Z,728
2019-05-10T07:31:16.014Z,752
2019-05-10T07:32:40.963Z,724
2019-05-10T07:33:22.764Z,728
2019-05-10T07:34:03.526Z,744
2019-05-10T07:35:42.479Z,744
2019-05-10T07:36:32.389Z,728
2019-05-10T07:39:18.992Z,672
2019-05-10T07:40:03.338Z,664
2019-05-10T07:40:40.286Z,668
2019-05-10T07:41:26.238Z,664
2019-05-10T07:44:10.967Z,772
2019-05-10T07:44:51.839Z,816
2019-05-10T07:45:33.272Z,872
2019-05-10T07:47:40.008Z,972
2019-05-10T07:48:23.120Z,976
2019-05-10T07:49:01.127Z,980
2019-05-10T07:49:42.711Z,980
2019-05-10T07:50:24.787Z,976
2019-05-10T07:52:28.835Z,932
2019-05-10T07:53:10.150Z,916
2019-05-10T07:53:56.843Z,908
2019-05-10T07:54:37.312Z,908
2019-05-10T07:55:17.835Z,904
2019-05-10T07:55:59.768Z,912
2019-05-10T07:56:45.340Z,920
2019-05-10T07:57:24.589Z,924
2019-05-10T07:58:07.033Z,924
2019-05-10T07:59:37.080Z,916
2019-05-10T08:00:12.557Z,928
2019-05-10T08:01:41.429Z,952
2019-05-10T08:02:23.702Z,972
2019-05-10T08:04:33.331Z,1064
2019-05-10T08:05:56.918Z,1160
2019-05-10T08:06:40.944Z,1212
2019-05-10T08:07:58.974Z,1288
2019-05-10T08:08:39.391Z,1280
2019-05-10T08:09:22.325Z,1248
2019-05-10T08:10:10.512Z,1212
2019-05-10T08:10:51.336Z,1168
2019-05-10T08:11:32.147Z,1136
2019-05-10T08:12:13.141Z,1108
2019-05-10T08:15:02.590Z,1104
2019-05-10T08:15:44.852Z,1148
2019-05-10T08:20:43.543Z,1168
2019-05-10T08:21:18.618Z,1184
2019-05-10T08:21:55.229Z,1212
2019-05-10T08:22:32.659Z,1260
2019-05-10T08:25:17.459Z,1636
2019-05-10T08:26:10.862Z,1596
2019-05-10T08:27:03.783Z,1612
2019-05-10T08:28:19.623Z,1640
2019-05-10T08:29:16.991Z,1680
2019-05-10T08:30:16.642Z,1784
2019-05-10T08:30:42.273Z,1900
2019-05-10T08:31:21.700Z,2052
2019-05-10T08:32:03.036Z,2244
2019-05-10T08:34:06.177Z,2928
2019-05-10T08:34:52.731Z,3232
2019-05-10T08:35:27.270Z,3276
2019-05-10T08:36:12.095Z,3312
2019-05-10T08:36:51.945Z,3252
2019-05-10T08:37:37.950Z,3140
2019-05-10T08:38:23.832Z,2992
2019-05-10T08:39:55.380Z,2688
2019-05-10T08:40:34.873Z,2616
2019-05-10T08:41:16.527Z,2564
2019-05-10T08:42:45.112Z,2636
2019-05-10T08:43:24.511Z,2448
2019-05-10T08:44:16.423Z,2360
2019-05-10T08:44:51.720Z,2220
2019-05-10T08:45:32.439Z,2088
2019-05-10T08:46:58.474Z,2032
2019-05-10T08:47:38.937Z,1988
2019-05-10T08:48:23.540Z,1864
2019-05-10T08:49:59.210Z,1572
2019-05-10T08:50:43.802Z,1560
2019-05-10T08:51:12.483Z,1632
2019-05-10T08:51:52.202Z,1664
2019-05-10T08:52:53.955Z,1448
2019-05-10T08:53:32.836Z,1280
2019-05-10T08:56:20.779Z,1052
2019-05-10T08:57:00.959Z,1268
2019-05-10T08:57:44.097Z,1336
2019-05-10T08:58:31.001Z,1300
2019-05-10T08:59:09.280Z,1360
2019-05-10T08:59:47.345Z,1456
2019-05-10T09:00:42.407Z,1460
2019-05-10T09:03:13.795Z,1736
2019-05-10T09:03:52.754Z,1624
2019-05-10T09:04:31.263Z,1384
2019-05-10T09:05:12.521Z,1408
2019-05-10T09:06:34.579Z,1428
2019-05-10T09:07:15.625Z,1440
2019-05-10T09:07:56.175Z,1508
2019-05-10T09:08:37.253Z,1528
2019-05-10T09:12:50.816Z,1148
2019-05-10T09:13:28.619Z,1124
2019-05-10T09:16:13.588Z,1108
2019-05-10T09:17:00.481Z,1044
2019-05-10T09:17:37.908Z,988
2019-05-10T09:19:44.343Z,972
2019-05-10T09:20:26.263Z,984
2019-05-10T09:21:08.706Z,1008
2019-05-10T09:24:01.339Z,1188
2019-05-10T09:24:34.819Z,1220
2019-05-10T09:25:20.063Z,1232
2019-05-10T09:26:01.756Z,1252
2019-05-10T09:28:47.452Z,1328
2019-05-10T09:29:32.157Z,1288
2019-05-10T09:33:33.345Z,996
2019-05-10T09:34:17.301Z,920
2019-05-10T09:34:59.592Z,836
2019-05-10T09:35:44.855Z,748
2019-05-10T09:36:30.874Z,696
2019-05-10T09:39:21.303Z,580
2019-05-10T09:40:05.237Z,520
2019-05-10T09:43:24.283Z,324
2019-05-10T09:44:03.195Z,316
2019-05-10T09:44:45.893Z,328
2019-05-10T09:45:24.629Z,336
2019-05-10T09:46:05.691Z,340
2019-05-10T09:46:46.823Z,340
2019-05-10T09:49:33.398Z,356
2019-05-10T09:50:15.805Z,372
2019-05-10T09:50:58.529Z,380
2019-05-10T09:51:37.208Z,392
2019-05-10T09:52:19.568Z,380
2019-05-10T09:54:23.113Z,412
2019-05-10T09:55:03.906Z,428
2019-05-10T09:55:45.425Z,440
2019-05-10T09:56:24.545Z,452
2019-05-10T09:58:38.161Z,544
2019-05-10T10:02:04.929Z,888
2019-05-10T10:02:47.587Z,912
2019-05-10T10:03:24.901Z,932
2019-05-10T10:04:05.212Z,968
2019-05-10T10:04:47.312Z,1016
2019-05-10T10:05:27.796Z,1056
2019-05-10T10:06:10.210Z,1100
2019-05-10T10:06:52.447Z,1172
2019-05-10T10:08:53.635Z,1520
2019-05-10T10:09:37.459Z,1680
2019-05-10T10:10:26.435Z,1872
2019-05-10T10:15:42.820Z,2940
2019-05-10T10:16:23.612Z,3028
2019-05-10T10:17:07.994Z,3112
2019-05-10T10:17:47.689Z,3120
2019-05-10T10:18:28.363Z,3248
2019-05-10T10:19:07.331Z,3380
2019-05-10T10:19:49.448Z,3180
2019-05-10T10:21:18.697Z,2628
2019-05-10T10:21:57.594Z,2476
2019-05-10T10:22:43.284Z,2396
2019-05-10T10:26:02.780Z,2560
2019-05-10T10:26:45.107Z,2688
2019-05-10T10:27:34.169Z,2752
2019-05-10T10:28:08.092Z,2840
2019-05-10T10:28:49.496Z,2984
2019-05-10T10:29:28.611Z,2900
2019-05-10T11:07:12.489Z,1264
2019-05-10T11:07:52.522Z,1252
2019-05-10T11:08:33.371Z,1268
2019-05-10T11:09:13.462Z,1248
2019-05-10T11:10:06.980Z,1228
2019-05-10T11:10:34.086Z,1332
2019-05-10T11:11:14.560Z,1448
2019-05-10T11:11:54.918Z,1404
2019-05-10T11:12:35.451Z,1280
2019-05-10T11:13:20.435Z,1148
2019-05-10T11:14:00.312Z,1068
2019-05-10T11:14:43.341Z,980
2019-05-10T11:16:46.576Z,792
2019-05-10T11:17:22.594Z,796
2019-05-10T11:18:02.893Z,836
2019-05-10T11:18:43.349Z,920
2019-05-10T11:19:23.736Z,988
2019-05-10T11:20:04.175Z,988
2019-05-10T11:20:49.201Z,992
2019-05-10T11:21:28.571Z,1008
2019-05-10T11:22:09.395Z,1052
2019-05-10T11:22:49.505Z,1176
2019-05-10T11:23:33.844Z,1288
2019-05-10T11:24:10.070Z,1372
2019-05-10T11:33:33.588Z,2588
2019-05-10T11:34:12.698Z,2656
2019-05-10T11:34:53.055Z,2764
2019-05-10T11:35:34.525Z,2796
2019-05-10T11:36:13.897Z,2704
2019-05-10T11:36:54.267Z,2720
2019-05-10T11:37:36.260Z,2740
2019-05-10T11:38:16.149Z,2868
2019-05-10T11:38:58.357Z,3008
2019-05-10T11:39:41.695Z,2896
2019-05-10T11:40:17.513Z,2972
2019-05-10T11:40:56.588Z,2816
2019-05-10T11:41:36.925Z,2720
2019-05-10T11:50:30.837Z,2672
2019-05-10T11:51:05.571Z,2660
2019-05-10T11:51:47.800Z,2680
2019-05-10T11:52:23.236Z,2752
2019-05-10T11:53:06.747Z,2704
2019-05-10T11:53:48.800Z,2760
2019-05-10T11:54:24.385Z,2720
2019-05-10T11:55:45.390Z,2908
2019-05-10T11:56:27.690Z,2924
2019-05-10T11:57:09.864Z,2936
2019-05-10T11:57:56.435Z,3108
2019-05-10T11:58:26.934Z,3096
2019-05-10T12:06:03.878Z,2184
2019-05-10T12:06:32.548Z,2492
2019-05-10T12:07:13.168Z,2232
2019-05-10T12:07:54.601Z,2260
2019-05-10T12:08:34.370Z,1972
2019-05-10T12:09:14.716Z,1756
2019-05-10T12:10:02.982Z,1652
2019-05-10T12:11:29.119Z,1476
2019-05-10T12:12:03.258Z,1400
2019-05-10T12:16:02.176Z,1716
2019-05-10T12:16:42.593Z,1796
2019-05-10T12:17:24.503Z,2104
2019-05-10T12:19:01.079Z,1976
2019-05-10T12:19:25.757Z,2076
2019-05-10T12:20:06.112Z,2508
2019-05-10T12:20:56.440Z,2268
2019-05-10T12:21:26.940Z,2504
2019-05-10T12:27:18.330Z,2272
2019-05-10T12:27:43.945Z,2260
2019-05-10T12:28:15.329Z,2284
2019-05-10T12:28:53.099Z,2320
2019-05-10T12:29:33.533Z,2316
2019-05-10T12:30:16.010Z,2308
2019-05-10T12:30:55.234Z,2016
2019-05-10T12:31:35.608Z,2284
2019-05-10T12:32:16.026Z,2204
2019-05-10T12:32:58.729Z,2068
2019-05-10T12:34:17.186Z,1528
2019-05-10T12:37:03.630Z,1628
2019-05-10T12:37:45.995Z,1324
2019-05-10T12:38:29.241Z,1216
2019-05-10T12:39:06.975Z,1184
2019-05-10T12:44:33.442Z,1616
2019-05-10T12:45:12.362Z,1624
2019-05-10T12:45:52.772Z,1156
2019-05-10T12:46:33.225Z,1536
2019-05-10T12:47:13.795Z,1264
2019-05-10T12:47:54.089Z,1108
2019-05-10T12:48:35.823Z,1092
2019-05-10T12:49:14.907Z,1096
2019-05-10T12:50:01.883Z,1100
2019-05-10T12:50:35.739Z,1220
2019-05-10T12:51:16.728Z,1612
2019-05-10T12:57:29.651Z,1080
2019-05-10T12:58:06.843Z,1060
2019-05-10T12:58:56.155Z,1024
2019-05-10T13:06:52.186Z,1512
2019-05-10T13:07:36.500Z,1588
2019-05-10T13:08:13.046Z,1628
2019-05-10T13:08:53.365Z,1740
2019-05-10T13:09:39.117Z,1728
2019-05-10T13:10:14.167Z,1772
2019-05-10T13:10:54.585Z,1884
2019-05-10T13:11:42.381Z,1960
2019-05-10T13:12:22.859Z,2116
2019-05-10T13:13:05.029Z,2532
2019-05-10T13:13:45.304Z,2548
2019-05-10T13:14:30.331Z,2536
2019-05-10T13:17:54.846Z,2456
2019-05-10T13:18:50.146Z,2448
2019-05-10T13:22:41.979Z,1416
2019-05-10T13:23:22.390Z,1320
2019-05-10T13:24:02.892Z,1320
2019-05-10T13:24:43.148Z,1732
2019-05-10T13:25:23.577Z,1692
2019-05-10T13:26:03.949Z,1496
2019-05-10T13:26:44.384Z,1704
2019-05-10T13:27:27.184Z,1700
2019-05-10T13:28:11.316Z,1728
2019-05-10T13:33:40.591Z,2132
2019-05-10T13:34:12.687Z,2132
2019-05-10T13:34:53.047Z,2052
2019-05-10T13:35:33.534Z,2028
2019-05-10T13:36:13.901Z,1964
2019-05-10T13:36:54.332Z,1896
2019-05-10T13:37:34.680Z,1808
2019-05-10T13:38:15.102Z,1740
2019-05-10T13:38:55.448Z,1688
2019-05-10T13:39:35.941Z,1616
2019-05-10T13:40:58.448Z,1648
2019-05-10T13:44:22.695Z,1164
2019-05-10T13:45:04.484Z,1148
2019-05-10T13:45:44.840Z,1148
2019-05-10T13:46:25.194Z,1180
2019-05-10T13:47:05.615Z,1348
2019-05-10T13:47:45.996Z,1172
2019-05-10T13:48:28.015Z,1380
2019-05-10T13:51:51.947Z,1248
2019-05-10T13:52:37.468Z,1296
2019-05-10T13:56:04.925Z,1200
2019-05-10T13:59:36.602Z,1840
2019-05-10T14:00:16.716Z,1868
2019-05-10T14:00:57.088Z,1888
2019-05-10T14:01:37.487Z,1932
2019-05-10T14:02:22.300Z,2052
2019-05-10T14:02:58.304Z,2088
2019-05-10T14:03:44.253Z,2072
2019-05-10T14:04:19.123Z,2012
2019-05-10T14:04:59.500Z,1948
2019-05-10T14:05:40.434Z,1724
2019-05-10T14:06:20.260Z,1652
2019-05-10T14:07:00.672Z,1764
2019-05-10T14:08:59.406Z,1612
2019-05-10T14:09:41.582Z,1592
2019-05-10T14:10:30.409Z,1548
2019-05-10T14:11:14.626Z,1632
2019-05-10T14:11:56.795Z,1580
2019-05-10T14:12:37.828Z,1516
2019-05-10T14:13:19.111Z,1528
2019-05-10T14:13:59.497Z,1556
2019-05-10T14:16:44.803Z,1464
2019-05-10T14:17:28.969Z,1444
2019-05-10T14:18:09.401Z,1508
2019-05-10T14:18:49.672Z,1552
2019-05-10T14:22:56.144Z,1176
2019-05-10T14:23:37.214Z,1168
2019-05-10T14:24:16.686Z,1172
2019-05-10T14:24:59.008Z,1308
2019-05-10T14:25:38.690Z,1248
2019-05-10T14:34:57.211Z,1484
2019-05-10T14:37:25.833Z,1612
2019-05-10T14:38:08.090Z,1364
2019-05-10T14:38:53.575Z,1724
2019-05-10T14:41:20.626Z,1788
2019-05-10T14:42:05.340Z,1772
2019-05-10T14:42:45.032Z,1420
2019-05-10T14:43:30.715Z,1368
2019-05-10T14:44:13.437Z,1300
2019-05-10T14:45:00.780Z,1536
2019-05-10T14:45:41.206Z,1216
2019-05-10T14:52:12.535Z,1220
2019-05-10T14:52:52.901Z,1172
2019-05-10T14:53:33.309Z,1132
2019-05-10T14:54:14.691Z,1108
2019-05-10T14:55:36.973Z,1096
2019-05-10T14:56:16.017Z,1088
2019-05-10T14:56:56.374Z,1120
2019-05-10T14:57:36.900Z,1112
2019-05-10T14:58:23.136Z,1088
2019-05-10T15:01:14.467Z,1288
2019-05-10T15:02:37.134Z,1304
2019-05-10T15:03:19.232Z,1316
2019-05-10T15:03:59.576Z,1396
2019-05-10T15:04:44.834Z,1444
2019-05-10T15:05:20.317Z,1664
2019-05-10T15:11:36.089Z,1500
2019-05-10T15:12:22.060Z,1584
2019-05-10T15:13:00.929Z,1576
2019-05-10T15:14:26.189Z,1592
2019-05-10T15:16:59.249Z,1668
2019-05-10T15:18:23.437Z,1536
2019-05-10T15:19:04.781Z,1496
2019-05-10T15:19:55.627Z,1544
2019-05-10T15:21:47.607Z,1564
2019-05-10T15:22:28.947Z,1348
2019-05-10T15:23:11.798Z,1284
2019-05-10T15:23:55.141Z,1304
2019-05-10T15:24:52.958Z,1364
2019-05-10T15:25:57.445Z,1340
2019-05-10T15:26:43.644Z,1304
2019-05-10T15:27:21.530Z,1112
2019-05-10T15:28:02.604Z,1104
2019-05-10T15:29:34.102Z,1024
2019-05-10T15:31:37.278Z,948
2019-05-10T15:32:19.628Z,924
2019-05-10T17:08:46.278Z,728
2019-05-10T17:09:32.266Z,716
2019-05-10T17:10:14.220Z,716
2019-05-10T17:11:09.180Z,724
2019-05-10T17:11:46.772Z,724
2019-05-10T17:13:06.791Z,720
2019-05-10T17:13:46.956Z,740
2019-05-10T17:14:27.327Z,744
2019-05-10T17:15:07.669Z,748
2019-05-10T17:15:48.144Z,748
2019-05-10T17:16:28.906Z,748
2019-05-10T17:17:08.910Z,764
2019-05-10T17:17:49.304Z,776
2019-05-10T17:18:29.737Z,788
2019-05-10T17:19:10.145Z,792
2019-05-10T17:19:54.246Z,792
2019-05-10T17:23:30.527Z,788
2019-05-10T17:24:18.504Z,796
2019-05-10T17:25:02.525Z,768
2019-05-10T17:25:40.523Z,760
2019-05-10T17:26:18.323Z,752
2019-05-10T17:30:27.693Z,700
2019-05-10T17:31:07.466Z,696
2019-05-10T17:31:45.421Z,696
2019-05-10T17:32:26.716Z,692
2019-05-10T17:33:06.616Z,684
2019-05-10T17:33:46.996Z,668
2019-05-10T17:34:29.410Z,664
2019-05-10T17:35:09.418Z,660
2019-05-10T17:39:53.868Z,672
2019-05-10T17:40:34.182Z,660
2019-05-10T17:41:14.615Z,672
2019-05-10T17:41:57.511Z,680
2019-05-10T17:42:40.530Z,668
2019-05-10T17:43:20.473Z,656
2019-05-10T17:43:56.275Z,648
2019-05-10T17:44:36.729Z,648
2019-05-10T17:45:19.091Z,648
2019-05-10T17:47:27.031Z,612
2019-05-10T17:48:08.520Z,600
2019-05-10T17:48:47.128Z,596
2019-05-10T17:49:28.345Z,580
2019-05-10T17:52:53.119Z,508
2019-05-10T17:53:35.933Z,492
2019-05-10T17:54:16.486Z,472
2019-05-10T17:54:56.982Z,468
2019-05-10T17:55:37.459Z,460
2019-05-10T17:56:18.499Z,456
2019-05-10T17:57:54.464Z,460
2019-05-10T17:59:15.105Z,460
2019-05-10T17:59:58.428Z,460
2019-05-10T18:01:23.188Z,464
2019-05-10T18:02:03.419Z,460
2019-05-10T18:02:45.339Z,456
2019-05-10T18:03:27.182Z,452
2019-05-10T18:04:09.598Z,444
2019-05-10T18:06:23.340Z,424
2019-05-10T18:07:08.226Z,416
2019-05-10T18:07:50.210Z,420
2019-05-10T18:09:13.901Z,416
2019-05-10T18:09:54.285Z,404
2019-05-10T18:10:36.979Z,400
2019-05-10T18:11:18.765Z,384
2019-05-10T18:12:43.337Z,364
2019-05-10T18:13:23.972Z,356
2019-05-10T18:14:04.526Z,352
2019-05-10T18:14:50.116Z,352
2019-05-10T18:15:32.817Z,352
2019-05-10T18:18:55.345Z,328
2019-05-10T18:19:38.092Z,320
2019-05-10T18:20:40.751Z,308
2019-05-10T18:21:21.738Z,300
2019-05-10T18:26:39.496Z,188
2019-05-10T18:27:18.697Z,172
2019-05-10T18:28:01.148Z,168
2019-05-10T18:28:43.324Z,156
2019-05-10T18:29:27.134Z,152
2019-05-10T18:33:33.591Z,132
2019-05-10T18:34:14.419Z,132
2019-05-10T18:34:54.760Z,128
2019-05-10T18:35:36.414Z,128
2019-05-10T18:38:22.218Z,136
2019-05-10T18:40:53.696Z,124
2019-05-10T18:41:35.752Z,116
2019-05-10T18:42:18.664Z,108
2019-05-10T18:43:03.695Z,104
2019-05-10T18:45:02.278Z,96
2019-05-10T18:45:42.385Z,92
2019-05-10T18:46:24.774Z,88
2019-05-10T18:47:04.815Z,84
2019-05-10T18:47:45.227Z,76
2019-05-10T18:48:25.679Z,76
2019-05-10T18:49:06.094Z,72
2019-05-10T18:49:57.859Z,64
2019-05-10T18:55:22.074Z,48
2019-05-10T18:56:04.486Z,44
2019-05-10T18:56:44.866Z,40
2019-05-10T18:57:25.293Z,40
2019-05-10T18:58:05.738Z,40
2019-05-10T18:58:46.099Z,36
2019-05-10T19:01:12.487Z,28
2019-05-10T19:03:57.751Z,20
2019-05-10T19:04:37.995Z,20
2019-05-10T19:05:18.275Z,16
2019-05-10T19:06:03.856Z,16
2019-05-10T19:06:43.982Z,16
2019-05-10T19:07:21.915Z,16
2019-05-10T19:09:28.422Z,12
2019-05-10T19:10:12.474Z,12
2019-05-10T19:13:46.084Z,8
2019-05-10T19:14:18.098Z,8
2019-05-10T19:15:02.006Z,8
2019-05-10T19:15:45.947Z,4
2019-05-10T19:16:25.843Z,8
2019-05-10T19:25:11.969Z,4
2019-05-10T19:33:38.041Z,0
2019-05-10T19:34:28.465Z,0
2019-05-10T19:35:07.600Z,0
2019-05-10T19:35:48.011Z,0
2019-05-10T19:36:28.337Z,0
2019-05-10T19:37:50.473Z,0
2019-05-10T19:38:30.921Z,0
2019-05-10T19:39:12.425Z,0
2019-05-10T19:39:52.914Z,0
2019-05-10T19:40:33.171Z,0
2019-05-10T19:41:32.111Z,0
2019-05-10T19:42:12.607Z,0
2019-05-10T19:42:54.564Z,0
2019-05-10T19:43:55.768Z,0
2019-05-10T19:44:39.729Z,0
2019-05-10T20:07:11.735Z,0
2019-05-10T20:07:57.262Z,0
2019-05-10T20:08:42.142Z,0
2019-05-10T20:09:22.539Z,0
2019-05-10T20:10:02.968Z,0
2019-05-10T20:10:43.433Z,0
2019-05-10T20:14:48.379Z,0
2019-05-10T20:26:51.235Z,0
2019-05-10T20:27:31.108Z,0
2019-05-10T20:28:11.561Z,0